sensor_id;sensor_type;location;lat;lon;timestamp;temperature;humidity
21302;DHT22;10810;48.270;9.996;2023-04-01T00:00:32;7.60;99.90
21302;DHT22;10810;48.270;9.996;2023-04-01T00:02:59;7.60;99.90
21302;DHT22;10810;48.270;9.996;2023-04-01T00:05:26;7.60;99.90
21302;DHT22;10810;48.270;9.996;2023-04-01T00:07:53;7.60;99.90
21302;DHT22;10810;48.270;9.996;2023-04-01T00:10:21;7.60;99.90
21302;DHT22;10810;48.270;9.996;2023-04-01T00:12:48;7.60;99.90
21302;DHT22;10810;48.270;9.996;2023-04-01T00:15:15;7.50;99.90
21302;DHT22;10810;48.270;9.996;2023-04-01T00:17:43;7.50;99.90
21302;DHT22;10810;48.270;9.996;2023-04-01T00:20:11;7.50;99.90
21302;DHT22;10810;48.270;9.996;2023-04-01T00:22:39;7.40;99.90
21302;DHT22;10810;48.270;9.996;2023-04-01T00:25:07;7.40;99.90
21302;DHT22;10810;48.270;9.996;2023-04-01T00:27:34;7.40;99.90
21302;DHT22;10810;48.270;9.996;2023-04-01T00:30:01;7.40;99.90
21302;DHT22;10810;48.270;9.996;2023-04-01T00:32:28;7.40;99.90
21302;DHT22;10810;48.270;9.996;2023-04-01T00:34:57;7.40;99.90
21302;DHT22;10810;48.270;9.996;2023-04-01T00:37:25;7.30;99.90
21302;DHT22;10810;48.270;9.996;2023-04-01T00:39:52;7.30;99.90
21302;DHT22;10810;48.270;9.996;2023-04-01T00:42:19;7.30;99.90
21302;DHT22;10810;48.270;9.996;2023-04-01T00:44:49;7.30;99.90
21302;DHT22;10810;48.270;9.996;2023-04-01T00:47:17;7.30;99.90
21302;DHT22;10810;48.270;9.996;2023-04-01T00:49:47;7.20;99.90
21302;DHT22;10810;48.270;9.996;2023-04-01T00:52:19;7.20;99.90
21302;DHT22;10810;48.270;9.996;2023-04-01T00:54:50;7.20;99.90
21302;DHT22;10810;48.270;9.996;2023-04-01T00:57:21;7.20;99.90
21302;DHT22;10810;48.270;9.996;2023-04-01T00:59:52;7.20;99.90
21302;DHT22;10810;48.270;9.996;2023-04-01T01:02:21;7.20;99.90
21302;DHT22;10810;48.270;9.996;2023-04-01T01:04:48;7.10;99.90
21302;DHT22;10810;48.270;9.996;2023-04-01T01:07:22;7.10;99.90
21302;DHT22;10810;48.270;9.996;2023-04-01T01:09:57;7.10;99.90
21302;DHT22;10810;48.270;9.996;2023-04-01T01:12:29;7.00;99.90
21302;DHT22;10810;48.270;9.996;2023-04-01T01:15:05;7.00;99.90
21302;DHT22;10810;48.270;9.996;2023-04-01T01:17:42;7.00;99.90
21302;DHT22;10810;48.270;9.996;2023-04-01T01:20:42;7.00;99.90
21302;DHT22;10810;48.270;9.996;2023-04-01T01:23:29;7.00;99.90
21302;DHT22;10810;48.270;9.996;2023-04-01T01:26:18;7.00;99.90
21302;DHT22;10810;48.270;9.996;2023-04-01T01:29:00;7.00;99.90
21302;DHT22;10810;48.270;9.996;2023-04-01T01:31:34;6.90;99.90
21302;DHT22;10810;48.270;9.996;2023-04-01T01:34:12;6.90;99.90
21302;DHT22;10810;48.270;9.996;2023-04-01T01:36:44;6.90;99.90
21302;DHT22;10810;48.270;9.996;2023-04-01T01:39:13;6.90;99.90
21302;DHT22;10810;48.270;9.996;2023-04-01T01:41:41;6.90;99.90
21302;DHT22;10810;48.270;9.996;2023-04-01T01:44:11;6.80;99.90
21302;DHT22;10810;48.270;9.996;2023-04-01T01:46:41;6.80;99.90
21302;DHT22;10810;48.270;9.996;2023-04-01T01:49:10;6.80;99.90
21302;DHT22;10810;48.270;9.996;2023-04-01T01:51:38;6.80;99.90
21302;DHT22;10810;48.270;9.996;2023-04-01T01:54:07;6.80;99.90
21302;DHT22;10810;48.270;9.996;2023-04-01T01:56:38;6.80;99.90
21302;DHT22;10810;48.270;9.996;2023-04-01T01:59:08;6.80;99.90
21302;DHT22;10810;48.270;9.996;2023-04-01T02:01:39;6.90;99.90
21302;DHT22;10810;48.270;9.996;2023-04-01T02:04:07;6.80;99.90
21302;DHT22;10810;48.270;9.996;2023-04-01T02:06:39;6.80;99.90
21302;DHT22;10810;48.270;9.996;2023-04-01T02:09:09;6.70;99.90
21302;DHT22;10810;48.270;9.996;2023-04-01T02:11:40;6.70;99.90
21302;DHT22;10810;48.270;9.996;2023-04-01T02:14:11;6.60;99.90
21302;DHT22;10810;48.270;9.996;2023-04-01T02:16:45;6.60;99.90
21302;DHT22;10810;48.270;9.996;2023-04-01T02:19:15;6.60;99.90
21302;DHT22;10810;48.270;9.996;2023-04-01T02:21:49;6.60;99.90
21302;DHT22;10810;48.270;9.996;2023-04-01T02:24:22;6.60;99.90
21302;DHT22;10810;48.270;9.996;2023-04-01T02:26:50;6.60;99.90
21302;DHT22;10810;48.270;9.996;2023-04-01T02:29:20;6.60;99.90
21302;DHT22;10810;48.270;9.996;2023-04-01T02:31:48;6.60;99.90
21302;DHT22;10810;48.270;9.996;2023-04-01T02:34:16;6.50;99.90
21302;DHT22;10810;48.270;9.996;2023-04-01T02:36:43;6.50;99.90
21302;DHT22;10810;48.270;9.996;2023-04-01T02:39:10;6.60;99.90
21302;DHT22;10810;48.270;9.996;2023-04-01T02:41:42;6.60;99.90
21302;DHT22;10810;48.270;9.996;2023-04-01T02:44:10;6.60;99.90
21302;DHT22;10810;48.270;9.996;2023-04-01T02:46:38;6.60;99.90
21302;DHT22;10810;48.270;9.996;2023-04-01T02:49:06;6.70;99.90
21302;DHT22;10810;48.270;9.996;2023-04-01T02:51:33;6.70;99.90
21302;DHT22;10810;48.270;9.996;2023-04-01T02:54:00;6.70;99.90
21302;DHT22;10810;48.270;9.996;2023-04-01T02:56:27;6.70;99.90
21302;DHT22;10810;48.270;9.996;2023-04-01T02:58:56;6.70;99.90
21302;DHT22;10810;48.270;9.996;2023-04-01T03:01:23;6.70;99.90
21302;DHT22;10810;48.270;9.996;2023-04-01T03:03:50;6.70;99.90
21302;DHT22;10810;48.270;9.996;2023-04-01T03:06:17;6.70;99.90
21302;DHT22;10810;48.270;9.996;2023-04-01T03:08:45;6.70;99.90
21302;DHT22;10810;48.270;9.996;2023-04-01T03:11:12;6.70;99.90
21302;DHT22;10810;48.270;9.996;2023-04-01T03:13:39;6.70;99.90
21302;DHT22;10810;48.270;9.996;2023-04-01T03:16:08;6.70;99.90
21302;DHT22;10810;48.270;9.996;2023-04-01T03:18:35;6.70;99.90
21302;DHT22;10810;48.270;9.996;2023-04-01T03:21:13;6.70;99.90
21302;DHT22;10810;48.270;9.996;2023-04-01T03:23:40;6.70;99.90
21302;DHT22;10810;48.270;9.996;2023-04-01T03:26:07;6.60;99.90
21302;DHT22;10810;48.270;9.996;2023-04-01T03:28:34;6.60;99.90
21302;DHT22;10810;48.270;9.996;2023-04-01T03:31:02;6.60;99.90
21302;DHT22;10810;48.270;9.996;2023-04-01T03:33:30;6.60;99.90
21302;DHT22;10810;48.270;9.996;2023-04-01T03:35:57;6.60;99.90
21302;DHT22;10810;48.270;9.996;2023-04-01T03:38:25;6.60;99.90
21302;DHT22;10810;48.270;9.996;2023-04-01T03:40:52;6.60;99.90
21302;DHT22;10810;48.270;9.996;2023-04-01T03:43:19;6.70;99.90
21302;DHT22;10810;48.270;9.996;2023-04-01T03:45:46;6.70;99.90
21302;DHT22;10810;48.270;9.996;2023-04-01T03:48:14;6.70;99.90
21302;DHT22;10810;48.270;9.996;2023-04-01T03:50:43;6.70;99.90
21302;DHT22;10810;48.270;9.996;2023-04-01T03:53:10;6.70;99.90
21302;DHT22;10810;48.270;9.996;2023-04-01T03:55:38;6.60;99.90
21302;DHT22;10810;48.270;9.996;2023-04-01T03:58:05;6.70;99.90
21302;DHT22;10810;48.270;9.996;2023-04-01T04:00:32;6.70;99.90
21302;DHT22;10810;48.270;9.996;2023-04-01T04:02:59;6.70;99.90
21302;DHT22;10810;48.270;9.996;2023-04-01T04:05:26;6.70;99.90
21302;DHT22;10810;48.270;9.996;2023-04-01T04:07:55;6.70;99.90
21302;DHT22;10810;48.270;9.996;2023-04-01T04:10:22;6.70;99.90
21302;DHT22;10810;48.270;9.996;2023-04-01T04:12:50;6.70;99.90
21302;DHT22;10810;48.270;9.996;2023-04-01T04:15:18;6.70;99.90
21302;DHT22;10810;48.270;9.996;2023-04-01T04:17:45;6.80;99.90
21302;DHT22;10810;48.270;9.996;2023-04-01T04:20:13;6.80;99.90
21302;DHT22;10810;48.270;9.996;2023-04-01T04:22:40;6.80;99.90
21302;DHT22;10810;48.270;9.996;2023-04-01T04:25:09;6.80;99.90
21302;DHT22;10810;48.270;9.996;2023-04-01T04:27:36;6.80;99.90
21302;DHT22;10810;48.270;9.996;2023-04-01T04:30:05;6.70;99.90
21302;DHT22;10810;48.270;9.996;2023-04-01T04:32:32;6.70;99.90
21302;DHT22;10810;48.270;9.996;2023-04-01T04:35:00;6.70;99.90
21302;DHT22;10810;48.270;9.996;2023-04-01T04:37:27;6.70;99.90
21302;DHT22;10810;48.270;9.996;2023-04-01T04:39:54;6.70;99.90
21302;DHT22;10810;48.270;9.996;2023-04-01T04:42:22;6.60;99.90
21302;DHT22;10810;48.270;9.996;2023-04-01T04:44:49;6.60;99.90
21302;DHT22;10810;48.270;9.996;2023-04-01T04:47:16;6.60;99.90
21302;DHT22;10810;48.270;9.996;2023-04-01T04:49:43;6.50;99.90
21302;DHT22;10810;48.270;9.996;2023-04-01T04:52:10;6.40;99.90
21302;DHT22;10810;48.270;9.996;2023-04-01T04:54:37;6.30;99.90
21302;DHT22;10810;48.270;9.996;2023-04-01T04:57:04;6.40;99.90
21302;DHT22;10810;48.270;9.996;2023-04-01T04:59:32;6.40;99.90
21302;DHT22;10810;48.270;9.996;2023-04-01T05:01:59;6.40;99.90
21302;DHT22;10810;48.270;9.996;2023-04-01T05:04:26;6.40;99.90
21302;DHT22;10810;48.270;9.996;2023-04-01T05:06:53;6.50;99.90
21302;DHT22;10810;48.270;9.996;2023-04-01T05:09:20;6.50;99.90
21302;DHT22;10810;48.270;9.996;2023-04-01T05:11:47;6.50;99.90
21302;DHT22;10810;48.270;9.996;2023-04-01T05:14:15;6.50;99.90
21302;DHT22;10810;48.270;9.996;2023-04-01T05:16:43;6.50;99.90
21302;DHT22;10810;48.270;9.996;2023-04-01T05:19:10;6.60;99.90
21302;DHT22;10810;48.270;9.996;2023-04-01T05:21:37;6.60;99.90
21302;DHT22;10810;48.270;9.996;2023-04-01T05:24:08;6.50;99.90
21302;DHT22;10810;48.270;9.996;2023-04-01T05:26:36;6.60;99.90
21302;DHT22;10810;48.270;9.996;2023-04-01T05:29:04;6.60;99.90
21302;DHT22;10810;48.270;9.996;2023-04-01T05:31:31;6.60;99.90
21302;DHT22;10810;48.270;9.996;2023-04-01T05:33:59;6.60;99.90
21302;DHT22;10810;48.270;9.996;2023-04-01T05:36:26;6.60;99.90
21302;DHT22;10810;48.270;9.996;2023-04-01T05:38:55;6.70;99.90
21302;DHT22;10810;48.270;9.996;2023-04-01T05:41:22;6.70;99.90
21302;DHT22;10810;48.270;9.996;2023-04-01T05:43:49;6.70;99.90
21302;DHT22;10810;48.270;9.996;2023-04-01T05:46:16;6.70;99.90
21302;DHT22;10810;48.270;9.996;2023-04-01T05:48:43;6.80;99.90
21302;DHT22;10810;48.270;9.996;2023-04-01T05:51:14;6.80;99.90
21302;DHT22;10810;48.270;9.996;2023-04-01T05:53:41;6.80;99.90
21302;DHT22;10810;48.270;9.996;2023-04-01T05:56:08;6.80;99.90
21302;DHT22;10810;48.270;9.996;2023-04-01T05:58:36;6.80;99.90
21302;DHT22;10810;48.270;9.996;2023-04-01T06:01:04;6.90;99.90
21302;DHT22;10810;48.270;9.996;2023-04-01T06:03:32;6.90;99.90
21302;DHT22;10810;48.270;9.996;2023-04-01T06:05:59;6.90;99.90
21302;DHT22;10810;48.270;9.996;2023-04-01T06:08:30;6.90;99.90
21302;DHT22;10810;48.270;9.996;2023-04-01T06:11:04;7.00;99.90
21302;DHT22;10810;48.270;9.996;2023-04-01T06:16:34;7.00;99.90
21302;DHT22;10810;48.270;9.996;2023-04-01T06:19:10;7.00;99.90
21302;DHT22;10810;48.270;9.996;2023-04-01T06:22:03;7.00;99.90
21302;DHT22;10810;48.270;9.996;2023-04-01T06:24:44;7.10;99.90
21302;DHT22;10810;48.270;9.996;2023-04-01T06:27:19;7.20;99.90
21302;DHT22;10810;48.270;9.996;2023-04-01T06:30:00;7.30;99.90
21302;DHT22;10810;48.270;9.996;2023-04-01T06:32:39;7.30;99.90
21302;DHT22;10810;48.270;9.996;2023-04-01T06:35:24;7.40;99.90
21302;DHT22;10810;48.270;9.996;2023-04-01T06:38:20;7.40;99.90
21302;DHT22;10810;48.270;9.996;2023-04-01T06:41:09;7.50;99.90
21302;DHT22;10810;48.270;9.996;2023-04-01T06:43:49;7.50;99.90
21302;DHT22;10810;48.270;9.996;2023-04-01T06:46:21;7.60;99.90
21302;DHT22;10810;48.270;9.996;2023-04-01T06:49:05;7.60;99.90
21302;DHT22;10810;48.270;9.996;2023-04-01T06:51:40;7.60;99.90
21302;DHT22;10810;48.270;9.996;2023-04-01T06:54:13;7.60;99.90
21302;DHT22;10810;48.270;9.996;2023-04-01T06:56:45;7.60;99.90
21302;DHT22;10810;48.270;9.996;2023-04-01T06:59:17;7.70;99.90
21302;DHT22;10810;48.270;9.996;2023-04-01T07:01:48;7.60;99.90
21302;DHT22;10810;48.270;9.996;2023-04-01T07:04:21;7.70;99.90
21302;DHT22;10810;48.270;9.996;2023-04-01T07:06:52;7.80;99.90
21302;DHT22;10810;48.270;9.996;2023-04-01T07:09:24;7.80;99.90
21302;DHT22;10810;48.270;9.996;2023-04-01T07:11:59;7.80;99.90
21302;DHT22;10810;48.270;9.996;2023-04-01T07:14:30;7.80;99.90
21302;DHT22;10810;48.270;9.996;2023-04-01T07:17:02;7.80;99.90
21302;DHT22;10810;48.270;9.996;2023-04-01T07:19:34;7.70;99.90
21302;DHT22;10810;48.270;9.996;2023-04-01T07:22:05;7.80;99.90
21302;DHT22;10810;48.270;9.996;2023-04-01T07:24:34;7.90;99.90
21302;DHT22;10810;48.270;9.996;2023-04-01T07:27:08;7.90;99.90
21302;DHT22;10810;48.270;9.996;2023-04-01T07:29:36;8.00;99.90
21302;DHT22;10810;48.270;9.996;2023-04-01T07:32:14;8.00;99.90
21302;DHT22;10810;48.270;9.996;2023-04-01T07:35:05;8.10;99.90
21302;DHT22;10810;48.270;9.996;2023-04-01T07:37:39;8.20;99.90
21302;DHT22;10810;48.270;9.996;2023-04-01T07:40:22;8.30;99.90
21302;DHT22;10810;48.270;9.996;2023-04-01T07:43:09;8.40;99.90
21302;DHT22;10810;48.270;9.996;2023-04-01T07:45:47;8.40;99.90
21302;DHT22;10810;48.270;9.996;2023-04-01T07:48:23;8.60;99.90
21302;DHT22;10810;48.270;9.996;2023-04-01T07:50:56;8.60;99.90
21302;DHT22;10810;48.270;9.996;2023-04-01T07:53:34;8.70;99.90
21302;DHT22;10810;48.270;9.996;2023-04-01T07:56:06;8.70;99.90
21302;DHT22;10810;48.270;9.996;2023-04-01T07:58:48;8.70;99.90
21302;DHT22;10810;48.270;9.996;2023-04-01T08:01:23;8.70;99.90
21302;DHT22;10810;48.270;9.996;2023-04-01T08:04:08;8.70;99.90
21302;DHT22;10810;48.270;9.996;2023-04-01T08:06:44;8.70;99.90
21302;DHT22;10810;48.270;9.996;2023-04-01T08:09:23;8.80;99.90
21302;DHT22;10810;48.270;9.996;2023-04-01T08:12:08;8.70;99.90
21302;DHT22;10810;48.270;9.996;2023-04-01T08:14:46;8.70;99.90
21302;DHT22;10810;48.270;9.996;2023-04-01T08:17:18;8.70;99.90
21302;DHT22;10810;48.270;9.996;2023-04-01T08:19:56;8.80;99.90
21302;DHT22;10810;48.270;9.996;2023-04-01T08:22:29;8.80;99.90
21302;DHT22;10810;48.270;9.996;2023-04-01T08:24:58;8.80;99.90
21302;DHT22;10810;48.270;9.996;2023-04-01T08:27:34;8.80;99.90
21302;DHT22;10810;48.270;9.996;2023-04-01T08:30:14;8.70;99.90
21302;DHT22;10810;48.270;9.996;2023-04-01T08:32:45;8.70;99.90
21302;DHT22;10810;48.270;9.996;2023-04-01T08:35:20;8.70;99.90
21302;DHT22;10810;48.270;9.996;2023-04-01T08:37:51;8.80;99.90
21302;DHT22;10810;48.270;9.996;2023-04-01T08:40:41;8.80;99.90
21302;DHT22;10810;48.270;9.996;2023-04-01T08:43:16;8.90;99.90
21302;DHT22;10810;48.270;9.996;2023-04-01T08:46:13;9.00;99.90
21302;DHT22;10810;48.270;9.996;2023-04-01T08:49:04;9.00;99.90
21302;DHT22;10810;48.270;9.996;2023-04-01T08:54:54;9.10;99.90
21302;DHT22;10810;48.270;9.996;2023-04-01T08:57:37;9.10;99.90
21302;DHT22;10810;48.270;9.996;2023-04-01T09:00:15;9.10;99.90
21302;DHT22;10810;48.270;9.996;2023-04-01T09:06:31;9.10;99.90
21302;DHT22;10810;48.270;9.996;2023-04-01T09:09:12;9.10;99.90
21302;DHT22;10810;48.270;9.996;2023-04-01T09:12:02;9.10;99.90
21302;DHT22;10810;48.270;9.996;2023-04-01T09:14:53;9.00;99.90
21302;DHT22;10810;48.270;9.996;2023-04-01T09:17:41;9.00;99.90
21302;DHT22;10810;48.270;9.996;2023-04-01T09:20:24;8.80;99.90
21302;DHT22;10810;48.270;9.996;2023-04-01T09:23:15;8.70;99.90
21302;DHT22;10810;48.270;9.996;2023-04-01T09:26:08;8.70;99.90
21302;DHT22;10810;48.270;9.996;2023-04-01T09:28:42;8.70;99.90
21302;DHT22;10810;48.270;9.996;2023-04-01T09:31:44;8.70;99.90
21302;DHT22;10810;48.270;9.996;2023-04-01T09:34:31;8.60;99.90
21302;DHT22;10810;48.270;9.996;2023-04-01T09:37:20;8.50;99.90
21302;DHT22;10810;48.270;9.996;2023-04-01T09:42:49;8.60;99.90
21302;DHT22;10810;48.270;9.996;2023-04-01T09:45:32;8.60;99.90
21302;DHT22;10810;48.270;9.996;2023-04-01T09:48:16;8.60;99.90
21302;DHT22;10810;48.270;9.996;2023-04-01T09:50:52;8.60;99.90
21302;DHT22;10810;48.270;9.996;2023-04-01T09:53:35;8.60;99.90
21302;DHT22;10810;48.270;9.996;2023-04-01T10:06:13;8.60;99.90
21302;DHT22;10810;48.270;9.996;2023-04-01T10:09:27;8.60;99.90
21302;DHT22;10810;48.270;9.996;2023-04-01T10:12:31;8.60;99.90
21302;DHT22;10810;48.270;9.996;2023-04-01T10:18:28;8.70;99.90
21302;DHT22;10810;48.270;9.996;2023-04-01T10:24:31;8.70;99.90
21302;DHT22;10810;48.270;9.996;2023-04-01T10:27:10;8.80;99.90
21302;DHT22;10810;48.270;9.996;2023-04-01T10:29:59;8.80;99.90
21302;DHT22;10810;48.270;9.996;2023-04-01T10:33:08;8.90;99.90
21302;DHT22;10810;48.270;9.996;2023-04-01T10:36:09;8.90;99.90
21302;DHT22;10810;48.270;9.996;2023-04-01T10:39:09;9.10;99.90
21302;DHT22;10810;48.270;9.996;2023-04-01T10:45:17;9.20;99.90
21302;DHT22;10810;48.270;9.996;2023-04-01T10:48:09;9.20;99.90
21302;DHT22;10810;48.270;9.996;2023-04-01T10:51:16;9.30;99.90
21302;DHT22;10810;48.270;9.996;2023-04-01T10:53:52;9.40;99.90
21302;DHT22;10810;48.270;9.996;2023-04-01T10:56:34;9.40;99.90
21302;DHT22;10810;48.270;9.996;2023-04-01T11:03:08;9.50;99.90
21302;DHT22;10810;48.270;9.996;2023-04-01T11:06:16;9.60;99.90
21302;DHT22;10810;48.270;9.996;2023-04-01T11:09:10;9.50;99.90
21302;DHT22;10810;48.270;9.996;2023-04-01T11:12:09;9.60;99.90
21302;DHT22;10810;48.270;9.996;2023-04-01T11:15:03;9.50;99.90
21302;DHT22;10810;48.270;9.996;2023-04-01T11:18:08;9.50;99.90
21302;DHT22;10810;48.270;9.996;2023-04-01T11:23:53;9.50;99.90
21302;DHT22;10810;48.270;9.996;2023-04-01T11:26:32;9.60;99.90
21302;DHT22;10810;48.270;9.996;2023-04-01T11:32:13;9.30;99.90
21302;DHT22;10810;48.270;9.996;2023-04-01T11:35:01;9.10;99.90
21302;DHT22;10810;48.270;9.996;2023-04-01T11:37:37;8.90;99.90
21302;DHT22;10810;48.270;9.996;2023-04-01T11:40:17;8.80;99.90
21302;DHT22;10810;48.270;9.996;2023-04-01T11:43:36;8.30;99.90
21302;DHT22;10810;48.270;9.996;2023-04-01T11:46:49;8.70;99.90
21302;DHT22;10810;48.270;9.996;2023-04-01T11:50:11;8.60;99.90
21302;DHT22;10810;48.270;9.996;2023-04-01T11:59:59;8.40;99.90
21302;DHT22;10810;48.270;9.996;2023-04-01T12:03:00;8.50;99.90
21302;DHT22;10810;48.270;9.996;2023-04-01T12:06:15;8.40;99.90
21302;DHT22;10810;48.270;9.996;2023-04-01T12:11:05;8.40;99.90
21302;DHT22;10810;48.270;9.996;2023-04-01T12:12:38;8.50;99.90
21302;DHT22;10810;48.270;9.996;2023-04-01T12:15:43;8.50;99.90
21302;DHT22;10810;48.270;9.996;2023-04-01T12:20:37;8.60;99.90
21302;DHT22;10810;48.270;9.996;2023-04-01T12:21:48;8.70;99.90
21302;DHT22;10810;48.270;9.996;2023-04-01T12:24:47;8.70;99.90
21302;DHT22;10810;48.270;9.996;2023-04-01T12:29:19;8.80;99.90
21302;DHT22;10810;48.270;9.996;2023-04-01T12:30:48;8.90;99.90
21302;DHT22;10810;48.270;9.996;2023-04-01T12:36:18;9.20;99.90
21302;DHT22;10810;48.270;9.996;2023-04-01T12:39:06;9.30;99.90
21302;DHT22;10810;48.270;9.996;2023-04-01T12:42:03;9.30;99.90
21302;DHT22;10810;48.270;9.996;2023-04-01T12:45:11;9.30;99.90
21302;DHT22;10810;48.270;9.996;2023-04-01T12:48:05;9.30;99.90
21302;DHT22;10810;48.270;9.996;2023-04-01T12:57:15;9.30;99.90
21302;DHT22;10810;48.270;9.996;2023-04-01T13:02:53;9.20;99.90
21302;DHT22;10810;48.270;9.996;2023-04-01T13:05:37;9.20;99.90
21302;DHT22;10810;48.270;9.996;2023-04-01T13:08:25;9.10;99.90
21302;DHT22;10810;48.270;9.996;2023-04-01T13:11:07;9.10;99.90
21302;DHT22;10810;48.270;9.996;2023-04-01T13:16:40;9.10;99.90
21302;DHT22;10810;48.270;9.996;2023-04-01T13:19:15;9.10;99.90
21302;DHT22;10810;48.270;9.996;2023-04-01T13:22:01;9.10;99.90
21302;DHT22;10810;48.270;9.996;2023-04-01T13:24:47;9.10;99.90
21302;DHT22;10810;48.270;9.996;2023-04-01T13:27:40;9.20;99.90
21302;DHT22;10810;48.270;9.996;2023-04-01T13:30:22;9.20;99.90
21302;DHT22;10810;48.270;9.996;2023-04-01T13:32:58;9.30;99.90
21302;DHT22;10810;48.270;9.996;2023-04-01T13:35:46;9.30;99.90
21302;DHT22;10810;48.270;9.996;2023-04-01T13:38:52;9.40;99.90
21302;DHT22;10810;48.270;9.996;2023-04-01T13:41:36;9.40;99.90
21302;DHT22;10810;48.270;9.996;2023-04-01T13:44:43;9.40;99.90
21302;DHT22;10810;48.270;9.996;2023-04-01T13:47:59;9.40;99.90
21302;DHT22;10810;48.270;9.996;2023-04-01T13:50:39;9.40;99.90
21302;DHT22;10810;48.270;9.996;2023-04-01T13:53:38;9.40;99.90
21302;DHT22;10810;48.270;9.996;2023-04-01T13:56:15;9.50;99.90
21302;DHT22;10810;48.270;9.996;2023-04-01T13:59:10;9.50;99.90
21302;DHT22;10810;48.270;9.996;2023-04-01T14:01:47;9.50;99.90
21302;DHT22;10810;48.270;9.996;2023-04-01T14:04:39;9.50;99.90
21302;DHT22;10810;48.270;9.996;2023-04-01T14:07:29;9.50;99.90
21302;DHT22;10810;48.270;9.996;2023-04-01T14:10:06;9.50;99.90
21302;DHT22;10810;48.270;9.996;2023-04-01T14:12:42;9.60;99.90
21302;DHT22;10810;48.270;9.996;2023-04-01T14:15:27;9.50;99.90
21302;DHT22;10810;48.270;9.996;2023-04-01T14:18:24;9.60;99.90
21302;DHT22;10810;48.270;9.996;2023-04-01T14:21:13;9.60;99.90
21302;DHT22;10810;48.270;9.996;2023-04-01T14:23:57;9.70;99.90
21302;DHT22;10810;48.270;9.996;2023-04-01T14:26:57;9.80;99.90
21302;DHT22;10810;48.270;9.996;2023-04-01T14:29:30;9.80;99.90
21302;DHT22;10810;48.270;9.996;2023-04-01T14:32:10;9.80;99.90
21302;DHT22;10810;48.270;9.996;2023-04-01T14:34:52;9.90;99.90
21302;DHT22;10810;48.270;9.996;2023-04-01T14:37:41;9.80;99.90
21302;DHT22;10810;48.270;9.996;2023-04-01T14:40:49;9.80;99.90
21302;DHT22;10810;48.270;9.996;2023-04-01T14:43:59;9.80;99.90
21302;DHT22;10810;48.270;9.996;2023-04-01T14:49:35;9.70;99.90
21302;DHT22;10810;48.270;9.996;2023-04-01T14:52:11;9.70;99.90
21302;DHT22;10810;48.270;9.996;2023-04-01T14:54:42;9.80;99.90
21302;DHT22;10810;48.270;9.996;2023-04-01T14:57:13;9.90;99.90
21302;DHT22;10810;48.270;9.996;2023-04-01T14:59:52;10.00;99.90
21302;DHT22;10810;48.270;9.996;2023-04-01T15:02:45;10.10;99.90
21302;DHT22;10810;48.270;9.996;2023-04-01T15:05:43;10.10;99.90
21302;DHT22;10810;48.270;9.996;2023-04-01T15:09:47;10.20;99.90
21302;DHT22;10810;48.270;9.996;2023-04-01T15:12:26;10.20;99.90
21302;DHT22;10810;48.270;9.996;2023-04-01T15:15:31;10.20;99.90
21302;DHT22;10810;48.270;9.996;2023-04-01T15:18:24;9.40;99.90
21302;DHT22;10810;48.270;9.996;2023-04-01T15:21:23;10.00;99.90
21302;DHT22;10810;48.270;9.996;2023-04-01T15:24:24;10.00;99.90
21302;DHT22;10810;48.270;9.996;2023-04-01T15:28:58;9.90;99.90
21302;DHT22;10810;48.270;9.996;2023-04-01T15:30:32;9.90;99.90
21302;DHT22;10810;48.270;9.996;2023-04-01T15:33:13;9.90;99.90
21302;DHT22;10810;48.270;9.996;2023-04-01T15:35:52;9.80;99.90
21302;DHT22;10810;48.270;9.996;2023-04-01T15:38:38;9.70;99.90
21302;DHT22;10810;48.270;9.996;2023-04-01T15:41:23;9.70;99.90
21302;DHT22;10810;48.270;9.996;2023-04-01T15:44:26;9.70;99.90
21302;DHT22;10810;48.270;9.996;2023-04-01T15:47:31;9.70;99.90
21302;DHT22;10810;48.270;9.996;2023-04-01T15:53:18;9.60;99.90
21302;DHT22;10810;48.270;9.996;2023-04-01T15:55:50;9.60;99.90
21302;DHT22;10810;48.270;9.996;2023-04-01T15:58:42;9.60;99.90
21302;DHT22;10810;48.270;9.996;2023-04-01T16:01:19;9.60;99.90
21302;DHT22;10810;48.270;9.996;2023-04-01T16:03:57;9.60;99.90
21302;DHT22;10810;48.270;9.996;2023-04-01T16:06:53;9.60;99.90
21302;DHT22;10810;48.270;9.996;2023-04-01T16:09:36;9.60;99.90
21302;DHT22;10810;48.270;9.996;2023-04-01T16:12:15;9.50;99.90
21302;DHT22;10810;48.270;9.996;2023-04-01T16:14:53;9.50;99.90
21302;DHT22;10810;48.270;9.996;2023-04-01T16:17:49;9.50;99.90
21302;DHT22;10810;48.270;9.996;2023-04-01T16:20:35;9.40;99.90
21302;DHT22;10810;48.270;9.996;2023-04-01T16:23:16;9.40;99.90
21302;DHT22;10810;48.270;9.996;2023-04-01T16:25:53;9.40;99.90
21302;DHT22;10810;48.270;9.996;2023-04-01T16:28:32;9.30;99.90
21302;DHT22;10810;48.270;9.996;2023-04-01T16:31:12;9.30;99.90
21302;DHT22;10810;48.270;9.996;2023-04-01T16:33:52;9.30;99.90
21302;DHT22;10810;48.270;9.996;2023-04-01T16:36:40;9.20;99.90
21302;DHT22;10810;48.270;9.996;2023-04-01T16:39:18;9.10;99.90
21302;DHT22;10810;48.270;9.996;2023-04-01T16:42:19;9.10;99.90
21302;DHT22;10810;48.270;9.996;2023-04-01T16:44:52;9.00;99.90
21302;DHT22;10810;48.270;9.996;2023-04-01T16:47:45;8.90;99.90
21302;DHT22;10810;48.270;9.996;2023-04-01T16:50:26;8.90;99.90
21302;DHT22;10810;48.270;9.996;2023-04-01T16:53:19;8.80;99.90
21302;DHT22;10810;48.270;9.996;2023-04-01T16:55:50;8.90;99.90
21302;DHT22;10810;48.270;9.996;2023-04-01T16:58:23;8.90;99.90
21302;DHT22;10810;48.270;9.996;2023-04-01T17:00:55;8.90;99.90
21302;DHT22;10810;48.270;9.996;2023-04-01T17:03:42;8.90;99.90
21302;DHT22;10810;48.270;9.996;2023-04-01T17:06:30;8.90;99.90
21302;DHT22;10810;48.270;9.996;2023-04-01T17:09:23;8.90;99.90
21302;DHT22;10810;48.270;9.996;2023-04-01T17:12:07;8.80;99.90
21302;DHT22;10810;48.270;9.996;2023-04-01T17:14:44;8.80;99.90
21302;DHT22;10810;48.270;9.996;2023-04-01T17:17:24;8.80;99.90
21302;DHT22;10810;48.270;9.996;2023-04-01T17:20:14;8.70;99.90
21302;DHT22;10810;48.270;9.996;2023-04-01T17:23:18;8.70;99.90
21302;DHT22;10810;48.270;9.996;2023-04-01T17:26:13;8.70;99.90
21302;DHT22;10810;48.270;9.996;2023-04-01T17:28:53;8.70;99.90
21302;DHT22;10810;48.270;9.996;2023-04-01T17:31:46;8.70;99.90
21302;DHT22;10810;48.270;9.996;2023-04-01T17:34:33;8.70;99.90
21302;DHT22;10810;48.270;9.996;2023-04-01T17:37:18;8.60;99.90
21302;DHT22;10810;48.270;9.996;2023-04-01T17:40:21;8.60;99.90
21302;DHT22;10810;48.270;9.996;2023-04-01T17:42:59;8.60;99.90
21302;DHT22;10810;48.270;9.996;2023-04-01T17:45:33;8.60;99.90
21302;DHT22;10810;48.270;9.996;2023-04-01T17:48:14;8.60;99.90
21302;DHT22;10810;48.270;9.996;2023-04-01T17:50:51;8.60;99.90
21302;DHT22;10810;48.270;9.996;2023-04-01T17:53:29;8.60;99.90
21302;DHT22;10810;48.270;9.996;2023-04-01T17:56:08;8.60;99.90
21302;DHT22;10810;48.270;9.996;2023-04-01T17:58:44;8.60;99.90
21302;DHT22;10810;48.270;9.996;2023-04-01T18:07:30;8.60;99.90
21302;DHT22;10810;48.270;9.996;2023-04-01T18:10:15;8.60;99.90
21302;DHT22;10810;48.270;9.996;2023-04-01T18:13:05;8.60;99.90
21302;DHT22;10810;48.270;9.996;2023-04-01T18:15:40;8.60;99.90
21302;DHT22;10810;48.270;9.996;2023-04-01T18:18:33;8.50;99.90